Time;durP1;ratioP1;P1;durP2;ratioP2;P2;SDS_P1;SDS_P2;PMS_P1;PMS_P2;Temp;Humidity;BMP_temperature;BMP_pressure;BME280_temperature;BME280_humidity;BME280_pressure;Samples;Min_cycle;Max_cycle;Signal;HPM_P1;HPM_P2
2022/10/30 00:02:01;;;;;;;17.20;8.73;;;;;;;15.70;71.63;100660.56;10210350;28;20075;-63
2022/10/30 00:07:03;;;;;;;73.75;42.03;;;;;;;15.69;71.49;100656.19;10210909;28;20048;-62
2022/10/30 00:12:04;;;;;;;47.78;27.90;;;;;;;15.65;71.57;100649.50;10203014;28;20047;-62
2022/10/30 00:17:06;;;;;;;60.08;35.35;;;;;;;15.62;71.61;100656.16;10197060;28;20062;-62
2022/10/30 00:22:08;;;;;;;26.60;15.98;;;;;;;15.56;71.42;100646.13;10209204;28;20554;-62
2022/10/30 00:27:09;;;;;;;20.60;10.25;;;;;;;15.53;71.40;100645.69;10210034;28;20139;-62
2022/10/30 00:32:11;;;;;;;23.75;8.02;;;;;;;15.45;71.76;100644.00;10194546;28;20062;-62
2022/10/30 00:37:12;;;;;;;17.98;8.80;;;;;;;15.41;71.75;100638.13;10195310;29;20130;-62
2022/10/30 00:42:15;;;;;;;19.45;9.35;;;;;;;15.41;71.74;100648.13;10208895;28;20490;-65
2022/10/30 00:47:33;;;;;;;20.10;10.32;;;;;;;15.39;71.70;100640.19;10214452;28;20062;-62
2022/10/30 00:52:39;;;;;;;;;;;;;;;15.33;71.79;100651.84;10209021;28;20126;-62
2022/10/30 00:57:41;;;;;;;15.30;8.55;;;;;;;15.32;71.80;100643.91;10212562;28;19938;-62
2022/10/30 01:02:43;;;;;;;17.27;8.57;;;;;;;15.27;71.82;100647.22;10214131;28;20542;-62
2022/10/30 01:07:44;;;;;;;17.88;10.45;;;;;;;15.23;71.68;100635.13;10212563;29;20040;-63
2022/10/30 01:12:48;;;;;;;16.00;9.32;;;;;;;15.18;71.81;100635.69;10211959;29;20580;-63
2022/10/30 01:18:20;;;;;;;18.95;11.85;;;;;;;15.10;71.92;100646.69;10219308;28;20047;-62
2022/10/30 01:23:40;;;;;;;15.63;8.85;;;;;;;15.12;71.89;100632.97;10210532;28;20058;-62
2022/10/30 01:29:00;;;;;;;26.88;10.05;;;;;;;15.10;72.04;100625.03;10213004;29;20123;-62
2022/10/30 01:34:08;;;;;;;19.90;9.00;;;;;;;15.07;72.10;100628.16;10200732;29;20452;-63
2022/10/30 01:39:14;;;;;;;19.15;8.95;;;;;;;15.01;72.24;100629.78;10214702;29;20047;-62
2022/10/30 01:44:27;;;;;;;18.98;8.32;;;;;;;14.98;72.02;100627.47;10207931;29;20126;-62
2022/10/30 01:50:02;;;;;;;21.20;9.18;;;;;;;14.96;72.18;100624.13;10210058;29;20561;-63
2022/10/30 01:55:08;;;;;;;23.73;9.65;;;;;;;14.96;71.94;100613.28;10205930;29;20403;-62
2022/10/30 02:00:12;;;;;;;21.70;8.65;;;;;;;14.90;72.13;100618.66;10213852;29;20470;-62
2022/10/30 02:05:25;;;;;;;23.30;9.00;;;;;;;14.84;72.40;100617.59;10202129;29;20071;-62
2022/10/30 02:10:29;;;;;;;12.82;8.18;;;;;;;14.86;72.34;100620.94;10207185;28;20123;-62
2022/10/30 02:15:31;;;;;;;21.38;9.23;;;;;;;14.84;72.28;100626.53;10201567;28;20499;-62
2022/10/30 02:20:32;;;;;;;19.60;8.93;;;;;;;14.73;72.57;100637.91;10208657;28;20134;-62
2022/10/30 02:25:34;;;;;;;22.02;8.38;;;;;;;14.75;72.66;100629.56;10208599;28;20456;-62
2022/10/30 02:30:35;;;;;;;18.13;8.07;;;;;;;14.74;72.42;100634.16;10215281;28;20043;-62
2022/10/30 02:35:37;;;;;;;17.52;7.93;;;;;;;14.71;72.77;100621.03;10203416;28;20055;-62
2022/10/30 02:40:38;;;;;;;15.52;9.13;;;;;;;14.73;72.62;100631.66;10207228;29;20041;-63
2022/10/30 02:45:39;;;;;;;14.90;7.65;;;;;;;14.72;72.54;100633.53;10207484;29;20044;-63
2022/10/30 02:50:41;;;;;;;15.45;7.75;;;;;;;14.72;72.60;100638.94;10211093;29;20045;-63
2022/10/30 02:55:42;;;;;;;17.65;6.50;;;;;;;14.71;72.49;100637.28;10199202;28;20063;-62
2022/10/30 03:00:43;;;;;;;15.40;6.85;;;;;;;14.74;72.50;100638.75;10214768;28;20139;-62
2022/10/30 03:05:45;;;;;;;14.70;6.50;;;;;;;14.74;72.43;100641.44;10215508;28;20136;-62
2022/10/30 03:10:46;;;;;;;20.65;7.30;;;;;;;14.75;72.61;100633.16;10202570;29;20054;-63
2022/10/30 03:15:47;;;;;;;14.38;7.05;;;;;;;14.77;72.61;100620.25;10203525;28;20143;-63
2022/10/30 03:20:49;;;;;;;22.88;7.97;;;;;;;14.77;72.51;100614.84;10205157;28;20604;-62
2022/10/30 03:25:52;;;;;;;17.25;9.23;;;;;;;14.71;72.78;100614.78;10205570;29;20552;-62
2022/10/30 03:30:59;;;;;;;14.55;9.25;;;;;;;14.62;73.36;100628.44;10202379;28;20138;-62
2022/10/30 03:36:01;;;;;;;27.77;9.37;;;;;;;14.59;73.75;100636.97;10208136;29;20747;-62
2022/10/30 03:41:03;;;;;;;21.70;8.88;;;;;;;14.73;73.54;100635.22;10199303;28;20504;-62
2022/10/30 03:46:04;;;;;;;22.42;9.27;;;;;;;14.72;73.71;100636.22;10195175;29;20080;-63
2022/10/30 03:51:06;;;;;;;21.00;9.93;;;;;;;14.79;73.68;100634.41;10211149;28;20143;-63
2022/10/30 03:56:08;;;;;;;17.88;9.00;;;;;;;14.85;73.45;100628.22;10213593;28;20471;-63
2022/10/30 04:01:10;;;;;;;14.68;8.50;;;;;;;14.88;73.54;100626.97;10211162;29;20478;-63
2022/10/30 04:06:11;;;;;;;16.73;8.48;;;;;;;14.87;73.25;100628.84;10204108;28;20492;-62
2022/10/30 04:11:13;;;;;;;26.92;9.63;;;;;;;14.84;73.16;100633.81;10229373;28;20065;-62
2022/10/30 04:16:14;;;;;;;18.48;9.30;;;;;;;14.77;73.42;100633.78;10209942;28;20468;-62
2022/10/30 04:21:16;;;;;;;15.57;8.20;;;;;;;14.81;73.40;100629.66;10219169;29;20605;-62
2022/10/30 04:26:17;;;;;;;18.70;9.57;;;;;;;14.77;73.34;100639.19;10210479;28;20137;-62
2022/10/30 04:31:18;;;;;;;15.43;8.73;;;;;;;14.79;73.37;100637.13;10223755;28;20363;-62
2022/10/30 04:36:23;;;;;;;15.95;7.45;;;;;;;14.80;73.17;100629.84;10211441;28;20233;-63
2022/10/30 04:41:24;;;;;;;13.77;9.10;;;;;;;14.78;73.38;100627.31;10205974;29;20049;-62
2022/10/30 04:46:25;;;;;;;13.57;7.97;;;;;;;14.75;73.37;100630.44;10217099;29;20048;-63
2022/10/30 04:51:27;;;;;;;30.23;9.32;;;;;;;14.77;73.39;100635.63;10217974;28;20043;-62
2022/10/30 04:56:28;;;;;;;20.38;9.15;;;;;;;14.76;73.36;100626.69;10219296;28;20044;-62
2022/10/30 05:01:30;;;;;;;16.58;8.20;;;;;;;14.65;73.68;100622.66;10212604;29;20135;-63
2022/10/30 05:06:32;;;;;;;18.77;8.60;;;;;;;14.71;73.58;100623.75;10214916;29;20517;-62
2022/10/30 05:11:33;;;;;;;19.48;8.30;;;;;;;14.75;73.51;100626.88;10209785;29;20048;-62
2022/10/30 05:16:34;;;;;;;22.48;9.52;;;;;;;14.76;73.38;100620.44;10219045;28;20981;-62
2022/10/30 05:21:36;;;;;;;18.30;9.02;;;;;;;14.79;73.29;100631.72;10210929;28;20058;-63
2022/10/30 05:26:37;;;;;;;14.63;8.82;;;;;;;14.78;73.33;100621.09;10209655;28;20179;-62
2022/10/30 05:31:39;;;;;;;15.57;8.88;;;;;;;14.73;73.18;100616.28;10217463;29;20035;-62
2022/10/30 05:36:40;;;;;;;17.15;8.30;;;;;;;14.68;73.21;100621.41;10212566;28;20122;-62
2022/10/30 05:41:42;;;;;;;15.48;7.93;;;;;;;14.64;73.14;100620.16;10207801;29;20103;-63
2022/10/30 05:46:43;;;;;;;16.27;8.40;;;;;;;14.62;73.18;100617.63;10217261;28;20143;-63
2022/10/30 05:51:45;;;;;;;20.23;8.85;;;;;;;14.58;73.16;100610.94;10213124;28;20159;-63
2022/10/30 05:56:46;;;;;;;18.70;8.43;;;;;;;14.48;73.33;100622.06;10204316;29;20054;-62
2022/10/30 06:01:47;;;;;;;21.90;9.35;;;;;;;14.43;73.37;100624.50;10209325;28;20413;-63
2022/10/30 06:06:49;;;;;;;20.40;8.05;;;;;;;14.45;73.27;100621.59;10216691;28;20164;-62
2022/10/30 06:11:51;;;;;;;18.17;9.10;;;;;;;14.43;73.21;100640.72;10207798;29;20130;-59
2022/10/30 06:16:53;;;;;;;17.60;8.05;;;;;;;14.43;73.15;100634.50;10206758;28;20146;-58
2022/10/30 06:21:54;;;;;;;19.83;10.35;;;;;;;14.40;73.27;100641.13;10213140;28;20163;-59
2022/10/30 06:26:55;;;;;;;18.85;9.55;;;;;;;14.36;73.16;100637.16;10208229;28;20569;-58
2022/10/30 06:31:57;;;;;;;15.98;9.57;;;;;;;14.34;73.20;100639.22;10223972;28;20039;-59
2022/10/30 06:37:02;;;;;;;15.70;8.55;;;;;;;14.30;73.29;100651.44;10210909;28;20132;-59
2022/10/30 06:42:04;;;;;;;17.67;9.40;;;;;;;14.27;73.12;100660.75;10209837;28;20043;-58
2022/10/30 06:47:05;;;;;;;17.33;8.90;;;;;;;14.25;73.38;100653.88;10207859;29;20040;-60
2022/10/30 06:52:07;;;;;;;18.65;7.70;;;;;;;14.26;73.34;100655.56;10210344;29;20154;-58
2022/10/30 06:57:08;;;;;;;16.42;9.35;;;;;;;14.31;73.27;100654.97;10212328;28;20044;-59
2022/10/30 07:02:10;;;;;;;16.50;8.30;;;;;;;14.33;73.31;100661.84;10209781;29;20367;-58
2022/10/30 07:07:12;;;;;;;16.35;8.68;;;;;;;14.36;73.37;100650.66;10201976;28;20494;-60
2022/10/30 07:12:14;;;;;;;14.80;8.10;;;;;;;14.40;73.30;100651.94;10206792;28;20078;-58
2022/10/30 07:17:15;;;;;;;10.68;7.55;;;;;;;14.44;73.50;100655.94;10216479;28;20051;-58
2022/10/30 07:22:17;;;;;;;12.95;8.45;;;;;;;14.53;73.52;100656.63;10205825;28;20130;-59
2022/10/30 07:27:18;;;;;;;15.80;8.50;;;;;;;14.62;73.45;100662.78;10204877;28;20044;-57
2022/10/30 07:32:20;;;;;;;17.90;8.32;;;;;;;14.69;73.56;100650.13;10200842;29;20047;-58
2022/10/30 07:37:21;;;;;;;15.70;7.57;;;;;;;14.80;73.49;100659.59;10197269;28;20547;-58
2022/10/30 07:42:23;;;;;;;12.50;7.90;;;;;;;14.93;73.61;100675.09;10200452;28;20130;-58
2022/10/30 07:47:24;;;;;;;14.02;7.55;;;;;;;15.06;73.73;100672.50;10209256;28;20048;-59
2022/10/30 07:52:30;;;;;;;10.50;6.65;;;;;;;15.26;73.50;100676.19;10205873;28;20050;-58
2022/10/30 07:57:39;;;;;;;14.68;7.53;;;;;;;15.43;73.52;100673.97;10200678;29;20143;-59
2022/10/30 08:02:41;;;;;;;13.93;7.72;;;;;;;15.60;73.41;100670.94;10201107;28;20047;-60
2022/10/30 08:07:45;;;;;;;17.50;8.65;;;;;;;15.79;73.37;100674.81;10201232;29;20059;-59
2022/10/30 08:12:47;;;;;;;14.75;8.32;;;;;;;15.95;73.51;100677.16;10205824;28;20134;-57
2022/10/30 08:17:49;;;;;;;12.93;8.18;;;;;;;16.13;73.40;100682.00;10198121;28;20147;-58
2022/10/30 08:22:55;;;;;;;22.92;10.48;;;;;;;16.29;73.67;100683.53;10206406;28;20146;-58
2022/10/30 08:28:03;;;;;;;19.20;10.60;;;;;;;16.38;73.90;100684.16;10195788;28;20052;-59
2022/10/30 08:33:09;;;;;;;16.80;10.07;;;;;;;16.55;73.77;100688.16;10207136;29;20044;-58
2022/10/30 08:38:10;;;;;;;20.35;10.43;;;;;;;16.70;73.86;100678.97;10196087;28;20131;-59
2022/10/30 08:43:12;;;;;;;20.92;10.38;;;;;;;16.85;73.85;100679.66;10205159;28;20458;-57
2022/10/30 08:48:15;;;;;;;18.05;10.40;;;;;;;17.03;73.72;100668.97;10204820;28;20414;-58
2022/10/30 08:53:17;;;;;;;12.77;9.07;;;;;;;17.16;73.48;100673.56;10208736;28;20142;-58
2022/10/30 08:58:18;;;;;;;16.70;9.27;;;;;;;17.31;73.53;100678.75;10201659;28;20448;-59
2022/10/30 09:03:19;;;;;;;20.80;9.68;;;;;;;17.47;73.40;100679.34;10212994;28;20043;-58
2022/10/30 09:08:21;;;;;;;18.70;10.15;;;;;;;17.66;73.32;100669.47;10206376;29;20131;-59
2022/10/30 09:13:23;;;;;;;16.83;11.55;;;;;;;17.81;73.30;100667.28;10210093;28;20062;-58
2022/10/30 09:18:24;;;;;;;16.00;10.00;;;;;;;18.01;73.01;100665.34;10216326;28;20139;-59
2022/10/30 09:23:26;;;;;;;20.98;12.05;;;;;;;18.17;72.62;100660.47;10213040;28;20067;-58
2022/10/30 09:28:27;;;;;;;25.15;12.07;;;;;;;18.31;72.43;100653.88;10211428;28;20602;-59
2022/10/30 09:33:28;;;;;;;24.60;11.25;;;;;;;18.39;72.33;100661.78;10214017;28;20130;-58
2022/10/30 09:38:30;;;;;;;21.85;11.82;;;;;;;18.66;71.79;100666.19;10216037;29;20058;-59
2022/10/30 09:43:54;;;;;;;22.42;12.07;;;;;;;18.70;71.56;100660.09;10197867;29;20123;-59
2022/10/30 09:49:19;;;;;;;22.67;10.80;;;;;;;18.94;71.04;100654.88;10202050;28;20048;-59
2022/10/30 09:54:35;;;;;;;19.40;10.38;;;;;;;19.19;70.54;100663.88;10204424;28;20044;-59
2022/10/30 10:00:00;;;;;;;23.67;9.95;;;;;;;19.37;69.69;100656.72;10205468;28;20044;-59
2022/10/30 10:05:21;;;;;;;16.88;10.20;;;;;;;19.52;69.47;100657.19;10210793;29;20110;-59
2022/10/30 10:10:43;;;;;;;18.98;9.95;;;;;;;19.69;68.98;100649.25;10204879;28;20127;-60
2022/10/30 10:15:50;;;;;;;21.92;10.43;;;;;;;19.86;68.00;100662.28;10211702;29;20051;-59
2022/10/30 10:20:57;;;;;;;22.23;11.27;;;;;;;20.07;67.43;100658.22;10214516;28;20142;-59
2022/10/30 10:26:13;;;;;;;19.85;9.02;;;;;;;20.22;66.61;100647.69;10216777;28;20043;-59
2022/10/30 10:31:37;;;;;;;16.92;8.48;;;;;;;20.44;66.05;100649.88;10211893;29;20050;-60
2022/10/30 10:36:57;;;;;;;15.63;8.43;;;;;;;20.60;65.45;100639.16;10199690;29;20405;-59
2022/10/30 10:42:23;;;;;;;19.92;9.20;;;;;;;20.84;64.85;100649.28;10205041;29;20038;-60
2022/10/30 10:47:38;;;;;;;18.52;9.43;;;;;;;20.99;63.77;100634.09;10204692;29;20130;-59
2022/10/30 10:52:46;;;;;;;14.32;7.90;;;;;;;21.14;63.61;100636.31;10199584;29;20074;-59
2022/10/30 10:57:50;;;;;;;14.50;7.68;;;;;;;21.30;62.95;100631.19;10202691;28;20139;-60
2022/10/30 11:03:08;;;;;;;16.20;7.32;;;;;;;21.37;62.27;100631.91;10207163;29;20514;-59
2022/10/30 11:08:16;;;;;;;13.52;6.88;;;;;;;21.53;61.44;100611.22;10206578;28;20040;-60
2022/10/30 11:13:17;;;;;;;16.75;6.38;;;;;;;21.68;61.26;100613.41;10206440;28;20082;-59
2022/10/30 11:18:18;;;;;;;17.05;8.85;;;;;;;21.75;60.63;100612.19;10208500;28;20467;-59
2022/10/30 11:23:30;;;;;;;12.80;6.30;;;;;;;21.89;59.99;100601.78;10204968;28;20110;-59
2022/10/30 11:28:41;;;;;;;17.55;7.10;;;;;;;22.05;59.23;100596.59;10204970;28;20046;-60
2022/10/30 11:33:42;;;;;;;12.25;6.47;;;;;;;22.09;59.40;100600.50;10209153;29;20046;-58
2022/10/30 11:38:44;;;;;;;17.27;6.70;;;;;;;22.33;58.78;100588.38;10207069;28;20047;-60
2022/10/30 11:43:48;;;;;;;12.98;6.00;;;;;;;22.46;57.88;100597.34;10205318;28;20057;-60
2022/10/30 11:48:55;;;;;;;14.48;6.05;;;;;;;22.63;57.26;100589.94;10210990;29;20523;-59
2022/10/30 11:53:57;;;;;;;14.52;4.88;;;;;;;22.80;56.42;100586.34;10199795;28;20139;-59
2022/10/30 11:59:01;;;;;;;16.33;5.07;;;;;;;22.94;55.96;100576.69;10201617;28;20394;-59
2022/10/30 12:04:32;;;;;;;13.48;4.55;;;;;;;23.07;55.39;100578.28;10205361;28;20085;-59
2022/10/30 12:09:44;;;;;;;12.68;4.85;;;;;;;23.13;54.45;100577.25;10193941;29;20139;-58
2022/10/30 12:14:46;;;;;;;18.33;5.03;;;;;;;23.23;54.42;100576.56;10205797;29;20171;-59
2022/10/30 12:19:50;;;;;;;11.40;4.60;;;;;;;23.26;54.12;100571.41;10198450;28;20052;-60
2022/10/30 12:24:52;;;;;;;10.07;3.88;;;;;;;23.45;53.31;100563.66;10205547;28;20131;-60
2022/10/30 12:30:16;;;;;;;10.18;4.00;;;;;;;23.60;53.04;100564.91;10202877;29;20047;-60
2022/10/30 12:35:34;;;;;;;9.63;3.42;;;;;;;23.72;52.30;100555.44;10209779;29;20210;-59
2022/10/30 12:40:42;;;;;;;11.43;4.03;;;;;;;23.80;52.03;100551.44;10215586;28;20144;-60
2022/10/30 12:45:47;;;;;;;11.02;3.45;;;;;;;23.89;51.93;100549.88;10213666;29;20134;-60
2022/10/30 12:51:11;;;;;;;9.93;3.35;;;;;;;23.93;51.53;100552.94;10211250;28;20053;-60
2022/10/30 12:56:18;;;;;;;13.32;3.28;;;;;;;23.91;51.07;100544.97;10214246;28;20473;-59
2022/10/30 13:01:31;;;;;;;8.23;3.25;;;;;;;24.08;50.74;100533.03;10210328;28;20066;-59
2022/10/30 13:06:41;;;;;;;10.48;2.78;;;;;;;24.20;50.15;100530.09;10213848;28;20044;-60
2022/10/30 13:11:51;;;;;;;9.52;2.53;;;;;;;24.17;49.79;100530.63;10216457;28;20098;-60
2022/10/30 13:16:53;;;;;;;9.70;2.80;;;;;;;24.19;50.19;100522.94;10212008;28;20161;-60
2022/10/30 13:22:07;;;;;;;8.50;2.10;;;;;;;24.32;49.55;100525.25;10214708;28;20151;-60
2022/10/30 13:27:27;;;;;;;12.70;2.63;;;;;;;24.43;49.56;100521.50;10218292;29;20071;-59
2022/10/30 13:32:53;;;;;;;7.57;2.70;;;;;;;24.56;49.46;100522.97;10207888;28;20142;-59
2022/10/30 13:38:32;;;;;;;14.07;2.78;;;;;;;24.53;49.25;100527.09;10202983;28;20143;-60
2022/10/30 13:43:48;;;;;;;12.65;3.08;;;;;;;24.59;48.71;100527.94;10207927;28;20151;-60
2022/10/30 13:48:58;;;;;;;12.45;2.67;;;;;;;24.59;48.66;100516.97;10212334;28;20054;-60
2022/10/30 13:54:16;;;;;;;12.38;3.08;;;;;;;24.62;48.30;100518.34;10208572;29;20056;-61
2022/10/30 13:59:46;;;;;;;9.30;2.95;;;;;;;24.58;48.08;100509.78;10207530;29;20044;-60
2022/10/30 14:04:57;;;;;;;10.75;2.63;;;;;;;24.58;48.03;100518.03;10211200;28;20170;-60
2022/10/30 14:10:38;;;;;;;9.57;2.50;;;;;;;24.44;48.11;100525.06;10202890;28;20461;-60
2022/10/30 14:15:42;;;;;;;6.32;2.45;;;;;;;24.34;47.78;100520.31;10193617;28;20044;-60
2022/10/30 14:20:48;;;;;;;5.68;2.17;;;;;;;24.18;48.05;100527.63;10210052;28;20142;-60
2022/10/30 14:26:05;;;;;;;10.40;3.53;;;;;;;24.11;48.26;100519.59;10210213;28;20067;-59
2022/10/30 14:31:32;;;;;;;7.72;2.45;;;;;;;23.94;48.57;100525.22;10208038;28;20114;-59
2022/10/30 14:36:37;;;;;;;9.20;2.50;;;;;;;23.80;49.47;100531.41;10201757;28;20132;-60
2022/10/30 14:41:53;;;;;;;13.07;4.95;;;;;;;23.55;50.49;100541.81;10210883;29;20134;-61
2022/10/30 14:46:55;;;;;;;8.18;3.58;;;;;;;23.34;51.65;100539.91;10213033;28;20130;-60
2022/10/30 14:52:28;;;;;;;11.25;4.05;;;;;;;23.18;52.34;100536.16;10214200;28;20146;-60
2022/10/30 14:57:46;;;;;;;12.30;4.03;;;;;;;23.08;52.83;100536.84;10210892;28;20134;-61
2022/10/30 15:03:05;;;;;;;7.95;4.32;;;;;;;22.98;52.91;100531.22;10213130;28;20134;-59
2022/10/30 15:08:25;;;;;;;10.75;4.15;;;;;;;22.94;53.16;100535.56;10209306;28;20046;-60
2022/10/30 15:13:26;;;;;;;9.93;4.80;;;;;;;22.86;53.54;100536.00;10203279;28;20052;-59
2022/10/30 15:18:29;;;;;;;13.68;4.82;;;;;;;22.73;54.09;100540.75;10207099;28;20139;-61
2022/10/30 15:23:40;;;;;;;11.80;4.68;;;;;;;22.49;54.75;100547.50;10202812;28;20054;-59
2022/10/30 15:28:42;;;;;;;11.07;4.93;;;;;;;22.51;54.90;100548.06;10204126;28;20242;-60
2022/10/30 15:33:43;;;;;;;15.85;5.88;;;;;;;22.50;54.84;100547.25;10207149;28;20085;-60
2022/10/30 15:39:10;;;;;;;9.10;4.90;;;;;;;22.35;55.24;100544.28;10201534;28;20099;-60
2022/10/30 15:44:14;;;;;;;13.50;4.80;;;;;;;22.22;55.51;100547.34;10201033;29;20039;-60
2022/10/30 15:49:31;;;;;;;10.43;5.78;;;;;;;22.05;56.09;100547.31;10197956;28;20078;-60
2022/10/30 15:54:33;;;;;;;15.98;8.32;;;;;;;21.90;56.61;100548.72;10203471;28;20051;-61
2022/10/30 15:59:34;;;;;;;14.88;8.80;;;;;;;21.72;57.17;100559.84;10207899;28;20135;-61
2022/10/30 16:04:37;;;;;;;10.23;6.50;;;;;;;21.53;57.83;100565.53;10196540;28;20126;-61
2022/10/30 16:10:00;;;;;;;16.63;5.60;;;;;;;21.35;58.46;100566.50;10200308;28;20521;-60
2022/10/30 16:15:14;;;;;;;15.88;6.88;;;;;;;21.23;58.47;100567.59;10209321;28;20050;-60
2022/10/30 16:20:16;;;;;;;14.95;7.72;;;;;;;21.04;59.18;100565.03;10215261;28;20078;-59
2022/10/30 16:25:20;;;;;;;13.25;6.75;;;;;;;20.85;59.43;100558.84;10206411;28;20059;-59
2022/10/30 16:30:22;;;;;;;17.17;6.38;;;;;;;20.63;59.94;100563.28;10219296;28;20051;-61
2022/10/30 16:35:25;;;;;;;20.70;7.68;;;;;;;20.39;60.62;100566.78;10220574;28;20060;-60
2022/10/30 16:40:27;;;;;;;13.90;7.10;;;;;;;20.21;60.98;100561.41;10218845;28;20107;-60
2022/10/30 16:45:32;;;;;;;20.52;7.47;;;;;;;20.03;61.84;100566.97;10217456;28;20080;-59
2022/10/30 16:50:36;;;;;;;20.52;8.40;;;;;;;19.81;62.01;100578.41;10213395;28;20044;-60
2022/10/30 16:55:37;;;;;;;20.80;7.70;;;;;;;19.65;62.44;100584.44;10217364;28;20054;-63
2022/10/30 17:00:40;;;;;;;19.35;8.60;;;;;;;19.46;63.07;100587.22;10215110;28;20074;-62
2022/10/30 17:05:42;;;;;;;19.38;8.27;;;;;;;19.28;63.36;100592.69;10219992;28;20054;-62
2022/10/30 17:10:46;;;;;;;15.73;7.68;;;;;;;19.10;63.88;100591.63;10223270;28;20106;-61
2022/10/30 17:15:48;;;;;;;20.50;7.45;;;;;;;18.93;64.18;100596.81;10217450;28;20079;-62
2022/10/30 17:21:10;;;;;;;20.38;8.70;;;;;;;18.64;65.03;100603.75;10218370;28;20417;-63
2022/10/30 17:26:12;;;;;;;20.10;8.73;;;;;;;18.46;65.58;100620.88;10208122;28;20071;-63
2022/10/30 17:31:17;;;;;;;19.13;9.88;;;;;;;18.38;65.68;100619.28;10212476;28;20090;-63
2022/10/30 17:36:18;;;;;;;20.67;12.38;;;;;;;18.29;65.78;100619.78;10213883;28;20051;-63
2022/10/30 17:41:20;;;;;;;20.92;12.25;;;;;;;18.16;66.10;100624.22;10208561;29;20056;-63
2022/10/30 17:46:24;;;;;;;22.20;10.73;;;;;;;18.02;66.17;100634.38;10210956;28;20139;-63
2022/10/30 17:51:26;;;;;;;25.08;12.05;;;;;;;17.91;66.53;100640.50;10208768;28;20115;-63
2022/10/30 17:56:30;;;;;;;19.55;10.52;;;;;;;17.80;66.57;100635.72;10207443;28;20130;-63
2022/10/30 18:01:32;;;;;;;21.00;9.98;;;;;;;17.66;66.83;100645.81;10199470;28;20126;-63
2022/10/30 18:06:33;;;;;;;17.83;9.70;;;;;;;17.59;66.94;100651.25;10200572;29;20048;-61
2022/10/30 18:11:35;;;;;;;17.33;9.65;;;;;;;17.51;67.19;100648.78;10201178;29;20070;-63
2022/10/30 18:16:37;;;;;;;18.67;9.55;;;;;;;17.38;67.49;100667.88;10211716;28;20143;-63
2022/10/30 18:21:39;;;;;;;21.30;10.48;;;;;;;17.28;67.42;100671.03;10210733;28;20122;-62
2022/10/30 18:26:41;;;;;;;18.80;9.60;;;;;;;17.18;67.73;100676.91;10211429;29;20142;-62
2022/10/30 18:31:42;;;;;;;24.02;11.70;;;;;;;17.07;67.80;100674.00;10209561;28;20075;-62
2022/10/30 18:36:43;;;;;;;21.23;9.57;;;;;;;16.98;67.92;100673.34;10220564;28;20079;-62
2022/10/30 18:41:46;;;;;;;18.63;9.35;;;;;;;16.87;68.24;100690.31;10211574;28;20078;-62
2022/10/30 18:46:47;;;;;;;15.23;8.80;;;;;;;16.69;68.38;100693.63;10208527;28;20051;-63
2022/10/30 18:51:49;;;;;;;20.27;9.43;;;;;;;16.64;68.34;100692.31;10200825;28;20051;-63
2022/10/30 18:56:50;;;;;;;22.80;11.43;;;;;;;16.52;68.88;100696.72;10204015;29;20483;-61
2022/10/30 19:01:52;;;;;;;18.83;10.38;;;;;;;16.46;68.98;100692.94;10215883;28;20047;-63
2022/10/30 19:06:53;;;;;;;16.17;9.48;;;;;;;16.38;69.04;100693.13;10193759;28;20733;-63
2022/10/30 19:11:55;;;;;;;20.42;9.18;;;;;;;16.23;69.40;100695.19;10200794;28;20139;-63
2022/10/30 19:16:56;;;;;;;23.60;9.07;;;;;;;16.21;69.49;100706.25;10203045;28;20070;-63
2022/10/30 19:21:58;;;;;;;20.48;9.63;;;;;;;16.15;69.59;100714.34;10207798;29;20068;-65
2022/10/30 19:26:59;;;;;;;20.02;9.90;;;;;;;16.07;69.63;100715.38;10209770;28;20091;-65
2022/10/30 19:32:01;;;;;;;34.50;12.10;;;;;;;16.02;69.36;100713.28;10204936;28;20071;-64
2022/10/30 19:37:02;;;;;;;21.35;11.07;;;;;;;15.95;69.28;100709.69;10205955;29;20043;-62
2022/10/30 19:42:03;;;;;;;18.02;11.32;;;;;;;15.85;69.50;100710.06;10203894;28;20048;-63
2022/10/30 19:47:08;;;;;;;25.23;11.68;;;;;;;15.79;69.66;100712.75;10223305;28;20319;-64
2022/10/30 19:52:10;;;;;;;20.30;11.02;;;;;;;15.71;69.51;100704.78;10203841;29;20151;-65
2022/10/30 19:57:12;;;;;;;22.55;11.43;;;;;;;15.63;69.72;100703.06;10201147;28;20518;-62
2022/10/30 20:02:14;;;;;;;21.40;13.35;;;;;;;15.50;69.99;100701.13;10204575;29;20107;-61
2022/10/30 20:07:16;;;;;;;22.77;12.30;;;;;;;15.45;70.27;100701.72;10208191;29;20443;-61
2022/10/30 20:12:17;;;;;;;20.23;12.00;;;;;;;15.44;70.26;100710.03;10205338;28;20842;-64
2022/10/30 20:17:19;;;;;;;18.33;11.27;;;;;;;15.37;70.24;100711.88;10201883;28;20115;-62
2022/10/30 20:22:20;;;;;;;21.15;10.75;;;;;;;15.31;70.29;100727.06;10206501;28;20134;-62
2022/10/30 20:27:28;;;;;;;18.00;10.32;;;;;;;15.27;70.26;100726.59;10195320;28;20052;-63
2022/10/30 20:32:30;;;;;;;19.63;10.18;;;;;;;15.21;70.18;100729.28;10202850;29;20040;-64
2022/10/30 20:37:31;;;;;;;14.60;9.23;;;;;;;15.14;70.46;100728.38;10198901;29;20056;-62
2022/10/30 20:42:32;;;;;;;18.00;10.38;;;;;;;15.07;70.31;100733.75;10205160;28;20126;-63
2022/10/30 20:47:37;;;;;;;21.23;9.30;;;;;;;15.01;70.34;100734.53;10203111;28;20107;-60
2022/10/30 20:52:39;;;;;;;21.25;9.93;;;;;;;14.94;70.36;100742.59;10203750;28;20153;-63
2022/10/30 20:57:40;;;;;;;15.90;9.38;;;;;;;14.84;70.42;100751.03;10206537;28;20046;-63
2022/10/30 21:02:42;;;;;;;19.17;9.43;;;;;;;14.75;70.61;100751.34;10208859;28;20379;-62
2022/10/30 21:07:44;;;;;;;15.13;9.48;;;;;;;14.68;70.71;100748.59;10211036;28;20051;-62
2022/10/30 21:12:46;;;;;;;19.98;9.43;;;;;;;14.59;70.56;100757.84;10210897;28;20135;-61
2022/10/30 21:17:47;;;;;;;16.40;8.88;;;;;;;14.51;70.97;100757.97;10218640;29;20597;-61
2022/10/30 21:22:48;;;;;;;15.25;8.75;;;;;;;14.47;70.88;100754.78;10204650;28;20525;-63
2022/10/30 21:27:50;;;;;;;15.02;8.93;;;;;;;14.45;70.86;100763.13;10205293;28;20052;-63
2022/10/30 21:32:51;;;;;;;18.25;7.93;;;;;;;14.40;70.88;100756.59;10209633;28;20102;-63
2022/10/30 21:37:53;;;;;;;18.60;9.25;;;;;;;14.36;70.87;100761.56;10205371;28;20451;-63
2022/10/30 21:42:54;;;;;;;15.80;8.50;;;;;;;14.32;70.93;100762.97;10198723;28;20580;-62
2022/10/30 21:48:01;;;;;;;15.02;8.05;;;;;;;14.27;70.82;100758.09;10215553;28;20406;-62
2022/10/30 21:53:03;;;;;;;14.80;8.07;;;;;;;14.21;70.82;100758.88;10208005;29;20070;-62
2022/10/30 21:58:04;;;;;;;23.05;10.13;;;;;;;14.17;70.83;100770.25;10200288;28;20521;-63
2022/10/30 22:03:09;;;;;;;19.08;8.82;;;;;;;14.07;71.16;100770.56;10197213;28;20082;-62
2022/10/30 22:08:10;;;;;;;14.10;8.80;;;;;;;13.98;71.09;100761.72;10205518;28;20138;-63
2022/10/30 22:13:12;;;;;;;20.00;10.55;;;;;;;13.97;70.97;100762.75;10203517;28;20130;-65
2022/10/30 22:18:13;;;;;;;15.68;9.05;;;;;;;13.91;71.27;100759.97;10199514;28;20070;-62
2022/10/30 22:23:14;;;;;;;18.27;8.52;;;;;;;13.88;71.13;100758.44;10200031;28;20145;-62
2022/10/30 22:28:16;;;;;;;16.80;8.40;;;;;;;13.73;71.47;100763.03;10216604;28;20111;-62
2022/10/30 22:33:18;;;;;;;13.90;7.50;;;;;;;13.71;71.25;100759.69;10212190;28;20048;-64
2022/10/30 22:38:20;;;;;;;15.57;8.18;;;;;;;13.59;71.60;100770.94;10212384;28;20054;-64
2022/10/30 22:43:21;;;;;;;11.55;6.22;;;;;;;13.41;72.12;100765.91;10198888;28;20040;-64
2022/10/30 22:48:23;;;;;;;16.23;7.60;;;;;;;13.51;71.51;100765.66;10198462;28;20039;-63
2022/10/30 22:53:29;;;;;;;16.38;7.03;;;;;;;13.47;71.59;100759.75;10204158;28;20051;-63
2022/10/30 22:58:30;;;;;;;10.02;5.90;;;;;;;13.41;72.19;100767.78;10198628;28;20052;-62
2022/10/30 23:03:31;;;;;;;12.88;6.22;;;;;;;13.41;72.00;100773.19;10205883;28;20050;-63
2022/10/30 23:08:33;;;;;;;11.82;6.05;;;;;;;13.34;72.00;100775.75;10209415;28;20527;-64